sensor_id;sensor_type;location;lat;lon;timestamp;P1;durP1;ratioP1;P2;durP2;ratioP2
20794;SDS011;28087;-33.874;151.240;2022-09-20T00:01:09;7.22;;;1.60;;
20794;SDS011;28087;-33.874;151.240;2022-09-20T00:03:45;5.78;;;1.35;;
20794;SDS011;28087;-33.874;151.240;2022-09-20T00:06:24;10.05;;;1.40;;
20794;SDS011;28087;-33.874;151.240;2022-09-20T00:09:01;5.22;;;1.40;;
20794;SDS011;28087;-33.874;151.240;2022-09-20T00:11:37;5.80;;;1.40;;
20794;SDS011;28087;-33.874;151.240;2022-09-20T00:14:13;6.45;;;1.40;;
20794;SDS011;28087;-33.874;151.240;2022-09-20T00:16:48;6.07;;;1.25;;
20794;SDS011;28087;-33.874;151.240;2022-09-20T00:19:27;7.57;;;1.50;;
20794;SDS011;28087;-33.874;151.240;2022-09-20T00:22:04;7.47;;;1.55;;
20794;SDS011;28087;-33.874;151.240;2022-09-20T00:24:39;4.57;;;1.38;;
20794;SDS011;28087;-33.874;151.240;2022-09-20T00:27:17;10.88;;;1.85;;
20794;SDS011;28087;-33.874;151.240;2022-09-20T00:29:52;7.72;;;1.38;;
20794;SDS011;28087;-33.874;151.240;2022-09-20T00:32:27;6.47;;;1.20;;
20794;SDS011;28087;-33.874;151.240;2022-09-20T00:35:04;8.23;;;1.20;;
20794;SDS011;28087;-33.874;151.240;2022-09-20T00:37:42;5.95;;;1.10;;
20794;SDS011;28087;-33.874;151.240;2022-09-20T00:40:19;5.95;;;1.30;;
20794;SDS011;28087;-33.874;151.240;2022-09-20T00:42:57;6.78;;;1.25;;
20794;SDS011;28087;-33.874;151.240;2022-09-20T00:45:33;5.63;;;1.10;;
20794;SDS011;28087;-33.874;151.240;2022-09-20T00:48:10;4.75;;;1.20;;
20794;SDS011;28087;-33.874;151.240;2022-09-20T00:50:50;5.10;;;1.13;;
20794;SDS011;28087;-33.874;151.240;2022-09-20T00:53:30;5.97;;;1.27;;
20794;SDS011;28087;-33.874;151.240;2022-09-20T00:56:10;4.40;;;1.10;;
20794;SDS011;28087;-33.874;151.240;2022-09-20T00:58:49;4.95;;;1.00;;
20794;SDS011;28087;-33.874;151.240;2022-09-20T01:01:28;5.75;;;1.00;;
20794;SDS011;28087;-33.874;151.240;2022-09-20T01:04:05;5.47;;;1.17;;
20794;SDS011;28087;-33.874;151.240;2022-09-20T01:06:41;7.22;;;1.10;;
20794;SDS011;28087;-33.874;151.240;2022-09-20T01:09:20;5.22;;;1.20;;
20794;SDS011;28087;-33.874;151.240;2022-09-20T01:11:55;6.63;;;1.10;;
20794;SDS011;28087;-33.874;151.240;2022-09-20T01:14:32;4.60;;;0.98;;
20794;SDS011;28087;-33.874;151.240;2022-09-20T01:17:08;8.48;;;1.20;;
20794;SDS011;28087;-33.874;151.240;2022-09-20T01:19:47;5.22;;;0.98;;
20794;SDS011;28087;-33.874;151.240;2022-09-20T01:22:26;6.20;;;0.90;;
20794;SDS011;28087;-33.874;151.240;2022-09-20T01:25:10;5.63;;;1.23;;
20794;SDS011;28087;-33.874;151.240;2022-09-20T01:27:52;5.65;;;1.00;;
20794;SDS011;28087;-33.874;151.240;2022-09-20T01:30:29;6.97;;;1.10;;
20794;SDS011;28087;-33.874;151.240;2022-09-20T01:33:11;7.18;;;1.33;;
20794;SDS011;28087;-33.874;151.240;2022-09-20T01:35:52;5.40;;;1.08;;
20794;SDS011;28087;-33.874;151.240;2022-09-20T01:38:32;7.80;;;1.20;;
20794;SDS011;28087;-33.874;151.240;2022-09-20T01:41:08;5.15;;;0.90;;
20794;SDS011;28087;-33.874;151.240;2022-09-20T01:43:50;7.55;;;1.20;;
20794;SDS011;28087;-33.874;151.240;2022-09-20T01:46:31;6.78;;;1.20;;
20794;SDS011;28087;-33.874;151.240;2022-09-20T01:49:10;7.57;;;1.15;;
20794;SDS011;28087;-33.874;151.240;2022-09-20T01:52:16;6.32;;;1.20;;
20794;SDS011;28087;-33.874;151.240;2022-09-20T01:55:24;6.80;;;1.02;;
20794;SDS011;28087;-33.874;151.240;2022-09-20T02:04:41;6.47;;;1.50;;
20794;SDS011;28087;-33.874;151.240;2022-09-20T02:13:40;7.65;;;0.95;;
20794;SDS011;28087;-33.874;151.240;2022-09-20T02:16:30;4.55;;;1.10;;
20794;SDS011;28087;-33.874;151.240;2022-09-20T02:19:31;7.47;;;1.35;;
20794;SDS011;28087;-33.874;151.240;2022-09-20T02:22:21;3.80;;;1.02;;
20794;SDS011;28087;-33.874;151.240;2022-09-20T02:25:05;5.13;;;1.17;;
20794;SDS011;28087;-33.874;151.240;2022-09-20T02:27:53;7.88;;;0.90;;
20794;SDS011;28087;-33.874;151.240;2022-09-20T02:30:42;6.82;;;1.17;;
20794;SDS011;28087;-33.874;151.240;2022-09-20T02:33:32;6.63;;;1.13;;
20794;SDS011;28087;-33.874;151.240;2022-09-20T02:36:27;6.53;;;1.17;;
20794;SDS011;28087;-33.874;151.240;2022-09-20T02:39:14;6.50;;;0.93;;
20794;SDS011;28087;-33.874;151.240;2022-09-20T02:41:52;5.65;;;1.30;;
20794;SDS011;28087;-33.874;151.240;2022-09-20T02:47:31;4.95;;;1.10;;
20794;SDS011;28087;-33.874;151.240;2022-09-20T02:50:20;7.70;;;1.15;;
20794;SDS011;28087;-33.874;151.240;2022-09-20T02:53:06;7.15;;;1.10;;
20794;SDS011;28087;-33.874;151.240;2022-09-20T02:55:55;5.55;;;1.10;;
20794;SDS011;28087;-33.874;151.240;2022-09-20T02:58:35;7.28;;;1.02;;
20794;SDS011;28087;-33.874;151.240;2022-09-20T03:01:22;6.90;;;1.17;;
20794;SDS011;28087;-33.874;151.240;2022-09-20T03:04:13;5.55;;;1.25;;
20794;SDS011;28087;-33.874;151.240;2022-09-20T03:07:20;8.15;;;1.25;;
20794;SDS011;28087;-33.874;151.240;2022-09-20T03:10:13;6.25;;;1.45;;
20794;SDS011;28087;-33.874;151.240;2022-09-20T03:12:56;5.53;;;0.93;;
20794;SDS011;28087;-33.874;151.240;2022-09-20T03:15:50;6.25;;;1.10;;
20794;SDS011;28087;-33.874;151.240;2022-09-20T03:18:38;6.18;;;1.15;;
20794;SDS011;28087;-33.874;151.240;2022-09-20T03:21:26;6.65;;;1.10;;
20794;SDS011;28087;-33.874;151.240;2022-09-20T03:24:13;4.93;;;1.30;;
20794;SDS011;28087;-33.874;151.240;2022-09-20T03:27:01;5.38;;;1.00;;
20794;SDS011;28087;-33.874;151.240;2022-09-20T03:29:50;8.52;;;1.17;;
20794;SDS011;28087;-33.874;151.240;2022-09-20T03:32:39;6.88;;;1.08;;
20794;SDS011;28087;-33.874;151.240;2022-09-20T03:35:29;6.40;;;1.20;;
20794;SDS011;28087;-33.874;151.240;2022-09-20T03:38:21;5.47;;;1.10;;
20794;SDS011;28087;-33.874;151.240;2022-09-20T03:41:20;9.63;;;1.30;;
20794;SDS011;28087;-33.874;151.240;2022-09-20T03:44:23;6.78;;;1.20;;
20794;SDS011;28087;-33.874;151.240;2022-09-20T03:47:25;6.72;;;1.45;;
20794;SDS011;28087;-33.874;151.240;2022-09-20T03:50:19;6.15;;;1.17;;
20794;SDS011;28087;-33.874;151.240;2022-09-20T03:56:32;6.80;;;1.10;;
20794;SDS011;28087;-33.874;151.240;2022-09-20T03:59:41;7.07;;;1.10;;
20794;SDS011;28087;-33.874;151.240;2022-09-20T04:02:25;7.40;;;1.30;;
20794;SDS011;28087;-33.874;151.240;2022-09-20T04:05:01;8.00;;;1.13;;
20794;SDS011;28087;-33.874;151.240;2022-09-20T04:07:44;5.85;;;1.10;;
20794;SDS011;28087;-33.874;151.240;2022-09-20T04:10:48;5.43;;;1.33;;
20794;SDS011;28087;-33.874;151.240;2022-09-20T04:13:36;8.73;;;1.30;;
20794;SDS011;28087;-33.874;151.240;2022-09-20T04:16:24;7.00;;;1.10;;
20794;SDS011;28087;-33.874;151.240;2022-09-20T04:19:13;7.07;;;1.17;;
20794;SDS011;28087;-33.874;151.240;2022-09-20T04:21:53;10.15;;;1.35;;
20794;SDS011;28087;-33.874;151.240;2022-09-20T04:24:31;4.50;;;0.95;;
20794;SDS011;28087;-33.874;151.240;2022-09-20T04:27:14;4.75;;;1.40;;
20794;SDS011;28087;-33.874;151.240;2022-09-20T04:29:52;8.35;;;1.08;;
20794;SDS011;28087;-33.874;151.240;2022-09-20T04:32:34;6.45;;;1.23;;
20794;SDS011;28087;-33.874;151.240;2022-09-20T04:35:15;5.78;;;1.38;;
20794;SDS011;28087;-33.874;151.240;2022-09-20T04:38:15;4.68;;;1.10;;
20794;SDS011;28087;-33.874;151.240;2022-09-20T04:41:02;6.55;;;1.20;;
20794;SDS011;28087;-33.874;151.240;2022-09-20T04:47:15;5.43;;;1.05;;
20794;SDS011;28087;-33.874;151.240;2022-09-20T04:56:22;8.85;;;1.30;;
20794;SDS011;28087;-33.874;151.240;2022-09-20T04:59:14;7.35;;;1.30;;
20794;SDS011;28087;-33.874;151.240;2022-09-20T05:02:25;7.63;;;1.38;;
20794;SDS011;28087;-33.874;151.240;2022-09-20T05:05:42;6.78;;;1.20;;
20794;SDS011;28087;-33.874;151.240;2022-09-20T05:08:39;7.10;;;1.20;;
20794;SDS011;28087;-33.874;151.240;2022-09-20T05:12:03;5.57;;;1.08;;
20794;SDS011;28087;-33.874;151.240;2022-09-20T05:15:08;8.52;;;1.20;;
20794;SDS011;28087;-33.874;151.240;2022-09-20T05:18:07;4.43;;;0.85;;
20794;SDS011;28087;-33.874;151.240;2022-09-20T05:21:06;7.40;;;1.10;;
20794;SDS011;28087;-33.874;151.240;2022-09-20T05:23:56;9.18;;;1.50;;
20794;SDS011;28087;-33.874;151.240;2022-09-20T05:26:43;10.23;;;1.48;;
20794;SDS011;28087;-33.874;151.240;2022-09-20T05:29:30;5.15;;;1.17;;
20794;SDS011;28087;-33.874;151.240;2022-09-20T05:32:11;5.75;;;1.10;;
20794;SDS011;28087;-33.874;151.240;2022-09-20T05:34:55;5.15;;;1.00;;
20794;SDS011;28087;-33.874;151.240;2022-09-20T05:37:36;8.25;;;1.65;;
20794;SDS011;28087;-33.874;151.240;2022-09-20T05:40:17;10.60;;;1.27;;
20794;SDS011;28087;-33.874;151.240;2022-09-20T05:43:01;5.28;;;1.30;;
20794;SDS011;28087;-33.874;151.240;2022-09-20T05:45:48;8.75;;;1.40;;
20794;SDS011;28087;-33.874;151.240;2022-09-20T05:48:26;8.18;;;1.17;;
20794;SDS011;28087;-33.874;151.240;2022-09-20T05:51:04;7.18;;;1.35;;
20794;SDS011;28087;-33.874;151.240;2022-09-20T05:53:49;6.70;;;1.27;;
20794;SDS011;28087;-33.874;151.240;2022-09-20T05:56:38;7.55;;;1.20;;
20794;SDS011;28087;-33.874;151.240;2022-09-20T05:59:23;8.63;;;1.27;;
20794;SDS011;28087;-33.874;151.240;2022-09-20T06:02:08;8.52;;;1.55;;
20794;SDS011;28087;-33.874;151.240;2022-09-20T06:04:54;5.97;;;1.42;;
20794;SDS011;28087;-33.874;151.240;2022-09-20T06:10:50;8.05;;;1.40;;
20794;SDS011;28087;-33.874;151.240;2022-09-20T06:13:47;6.72;;;1.40;;
20794;SDS011;28087;-33.874;151.240;2022-09-20T06:16:36;5.55;;;1.17;;
20794;SDS011;28087;-33.874;151.240;2022-09-20T06:19:21;8.75;;;1.50;;
20794;SDS011;28087;-33.874;151.240;2022-09-20T06:22:06;6.78;;;1.20;;
20794;SDS011;28087;-33.874;151.240;2022-09-20T06:24:50;8.63;;;1.42;;
20794;SDS011;28087;-33.874;151.240;2022-09-20T06:27:29;9.98;;;1.75;;
20794;SDS011;28087;-33.874;151.240;2022-09-20T06:30:11;10.20;;;1.50;;
20794;SDS011;28087;-33.874;151.240;2022-09-20T06:32:54;11.90;;;1.55;;
20794;SDS011;28087;-33.874;151.240;2022-09-20T06:35:34;11.80;;;1.65;;
20794;SDS011;28087;-33.874;151.240;2022-09-20T06:38:17;9.85;;;1.40;;
20794;SDS011;28087;-33.874;151.240;2022-09-20T06:41:10;10.30;;;1.67;;
20794;SDS011;28087;-33.874;151.240;2022-09-20T06:44:04;8.25;;;1.40;;
20794;SDS011;28087;-33.874;151.240;2022-09-20T06:46:40;8.68;;;1.50;;
20794;SDS011;28087;-33.874;151.240;2022-09-20T06:49:15;9.57;;;1.70;;
20794;SDS011;28087;-33.874;151.240;2022-09-20T06:51:53;7.60;;;1.60;;
20794;SDS011;28087;-33.874;151.240;2022-09-20T06:54:28;8.50;;;1.50;;
20794;SDS011;28087;-33.874;151.240;2022-09-20T06:57:04;6.25;;;1.38;;
20794;SDS011;28087;-33.874;151.240;2022-09-20T06:59:40;8.50;;;1.70;;
20794;SDS011;28087;-33.874;151.240;2022-09-20T07:02:17;7.60;;;1.75;;
20794;SDS011;28087;-33.874;151.240;2022-09-20T07:04:53;8.07;;;1.70;;
20794;SDS011;28087;-33.874;151.240;2022-09-20T07:07:30;9.07;;;1.40;;
20794;SDS011;28087;-33.874;151.240;2022-09-20T07:10:05;11.32;;;1.75;;
20794;SDS011;28087;-33.874;151.240;2022-09-20T07:12:41;8.75;;;1.55;;
20794;SDS011;28087;-33.874;151.240;2022-09-20T07:15:17;8.38;;;1.33;;
20794;SDS011;28087;-33.874;151.240;2022-09-20T07:17:55;7.93;;;1.52;;
20794;SDS011;28087;-33.874;151.240;2022-09-20T07:20:30;10.23;;;1.70;;
20794;SDS011;28087;-33.874;151.240;2022-09-20T07:23:07;8.65;;;1.70;;
20794;SDS011;28087;-33.874;151.240;2022-09-20T07:25:45;8.75;;;1.60;;
20794;SDS011;28087;-33.874;151.240;2022-09-20T07:28:21;11.70;;;1.80;;
20794;SDS011;28087;-33.874;151.240;2022-09-20T07:30:56;11.00;;;1.70;;
20794;SDS011;28087;-33.874;151.240;2022-09-20T07:33:35;7.65;;;1.60;;
20794;SDS011;28087;-33.874;151.240;2022-09-20T07:36:12;13.00;;;1.67;;
20794;SDS011;28087;-33.874;151.240;2022-09-20T07:38:50;8.65;;;1.60;;
20794;SDS011;28087;-33.874;151.240;2022-09-20T07:41:27;10.30;;;1.52;;
20794;SDS011;28087;-33.874;151.240;2022-09-20T07:44:05;6.47;;;1.23;;
20794;SDS011;28087;-33.874;151.240;2022-09-20T07:46:57;8.43;;;1.55;;
20794;SDS011;28087;-33.874;151.240;2022-09-20T07:49:32;11.15;;;1.80;;
20794;SDS011;28087;-33.874;151.240;2022-09-20T07:52:07;7.78;;;1.50;;
20794;SDS011;28087;-33.874;151.240;2022-09-20T07:54:46;8.55;;;1.40;;
20794;SDS011;28087;-33.874;151.240;2022-09-20T07:57:21;7.05;;;1.30;;
20794;SDS011;28087;-33.874;151.240;2022-09-20T07:59:56;9.05;;;1.67;;
20794;SDS011;28087;-33.874;151.240;2022-09-20T08:02:39;10.85;;;1.75;;
20794;SDS011;28087;-33.874;151.240;2022-09-20T08:05:16;8.52;;;1.45;;
20794;SDS011;28087;-33.874;151.240;2022-09-20T08:07:51;9.93;;;1.60;;
20794;SDS011;28087;-33.874;151.240;2022-09-20T08:10:31;7.80;;;1.50;;
20794;SDS011;28087;-33.874;151.240;2022-09-20T08:13:06;13.10;;;1.70;;
20794;SDS011;28087;-33.874;151.240;2022-09-20T08:16:03;9.20;;;1.70;;
20794;SDS011;28087;-33.874;151.240;2022-09-20T08:18:44;8.60;;;1.50;;
20794;SDS011;28087;-33.874;151.240;2022-09-20T08:21:23;8.10;;;1.60;;
20794;SDS011;28087;-33.874;151.240;2022-09-20T08:24:01;11.23;;;1.70;;
20794;SDS011;28087;-33.874;151.240;2022-09-20T08:26:38;12.13;;;1.95;;
20794;SDS011;28087;-33.874;151.240;2022-09-20T08:29:14;10.95;;;1.88;;
20794;SDS011;28087;-33.874;151.240;2022-09-20T08:31:49;8.00;;;1.75;;
20794;SDS011;28087;-33.874;151.240;2022-09-20T08:34:27;11.82;;;1.80;;
20794;SDS011;28087;-33.874;151.240;2022-09-20T08:37:03;11.00;;;1.85;;
20794;SDS011;28087;-33.874;151.240;2022-09-20T08:39:39;12.85;;;1.88;;
20794;SDS011;28087;-33.874;151.240;2022-09-20T08:42:34;9.10;;;1.65;;
20794;SDS011;28087;-33.874;151.240;2022-09-20T08:45:14;10.95;;;1.50;;
20794;SDS011;28087;-33.874;151.240;2022-09-20T08:48:04;9.45;;;1.55;;
20794;SDS011;28087;-33.874;151.240;2022-09-20T08:50:42;8.63;;;1.50;;
20794;SDS011;28087;-33.874;151.240;2022-09-20T08:53:17;9.85;;;1.80;;
20794;SDS011;28087;-33.874;151.240;2022-09-20T08:55:53;8.82;;;1.65;;
20794;SDS011;28087;-33.874;151.240;2022-09-20T08:58:31;10.48;;;1.70;;
20794;SDS011;28087;-33.874;151.240;2022-09-20T09:01:05;9.32;;;1.73;;
20794;SDS011;28087;-33.874;151.240;2022-09-20T09:03:43;7.57;;;1.65;;
20794;SDS011;28087;-33.874;151.240;2022-09-20T09:06:19;8.07;;;1.80;;
20794;SDS011;28087;-33.874;151.240;2022-09-20T09:09:24;8.90;;;1.30;;
20794;SDS011;28087;-33.874;151.240;2022-09-20T09:11:56;8.55;;;1.60;;
20794;SDS011;28087;-33.874;151.240;2022-09-20T09:14:35;10.35;;;1.73;;
20794;SDS011;28087;-33.874;151.240;2022-09-20T09:17:42;10.55;;;1.75;;
20794;SDS011;28087;-33.874;151.240;2022-09-20T09:20:19;7.82;;;1.73;;
20794;SDS011;28087;-33.874;151.240;2022-09-20T09:23:00;11.95;;;1.77;;
20794;SDS011;28087;-33.874;151.240;2022-09-20T09:25:36;6.43;;;1.60;;
20794;SDS011;28087;-33.874;151.240;2022-09-20T09:28:13;11.38;;;1.80;;
20794;SDS011;28087;-33.874;151.240;2022-09-20T09:30:50;11.45;;;2.08;;
20794;SDS011;28087;-33.874;151.240;2022-09-20T09:33:25;8.55;;;1.48;;
20794;SDS011;28087;-33.874;151.240;2022-09-20T09:36:04;10.30;;;1.50;;
20794;SDS011;28087;-33.874;151.240;2022-09-20T09:38:44;9.95;;;2.15;;
20794;SDS011;28087;-33.874;151.240;2022-09-20T09:41:27;11.20;;;1.88;;
20794;SDS011;28087;-33.874;151.240;2022-09-20T09:44:17;13.00;;;1.60;;
20794;SDS011;28087;-33.874;151.240;2022-09-20T09:46:57;11.07;;;1.60;;
20794;SDS011;28087;-33.874;151.240;2022-09-20T09:49:35;10.32;;;1.80;;
20794;SDS011;28087;-33.874;151.240;2022-09-20T09:52:38;10.75;;;1.60;;
20794;SDS011;28087;-33.874;151.240;2022-09-20T09:55:27;11.70;;;2.00;;
20794;SDS011;28087;-33.874;151.240;2022-09-20T09:58:15;10.15;;;1.90;;
20794;SDS011;28087;-33.874;151.240;2022-09-20T10:00:58;9.57;;;1.48;;
20794;SDS011;28087;-33.874;151.240;2022-09-20T10:11:16;14.88;;;1.90;;
20794;SDS011;28087;-33.874;151.240;2022-09-20T10:21:55;14.50;;;1.60;;
20794;SDS011;28087;-33.874;151.240;2022-09-20T10:26:22;9.50;;;1.77;;
20794;SDS011;28087;-33.874;151.240;2022-09-20T10:30:03;11.57;;;1.80;;
20794;SDS011;28087;-33.874;151.240;2022-09-20T10:39:30;10.00;;;1.70;;
20794;SDS011;28087;-33.874;151.240;2022-09-20T10:42:20;14.50;;;2.15;;
20794;SDS011;28087;-33.874;151.240;2022-09-20T10:45:21;12.07;;;1.77;;
20794;SDS011;28087;-33.874;151.240;2022-09-20T10:48:21;13.52;;;2.17;;
20794;SDS011;28087;-33.874;151.240;2022-09-20T10:50:58;8.90;;;1.75;;
20794;SDS011;28087;-33.874;151.240;2022-09-20T10:53:39;12.00;;;1.95;;
20794;SDS011;28087;-33.874;151.240;2022-09-20T10:56:18;12.60;;;1.65;;
20794;SDS011;28087;-33.874;151.240;2022-09-20T11:05:30;11.95;;;1.60;;
20794;SDS011;28087;-33.874;151.240;2022-09-20T11:08:19;8.23;;;1.55;;
20794;SDS011;28087;-33.874;151.240;2022-09-20T11:11:20;11.60;;;1.75;;
20794;SDS011;28087;-33.874;151.240;2022-09-20T11:14:08;10.90;;;2.03;;
20794;SDS011;28087;-33.874;151.240;2022-09-20T11:16:55;12.05;;;1.70;;
20794;SDS011;28087;-33.874;151.240;2022-09-20T11:19:47;11.60;;;1.73;;
20794;SDS011;28087;-33.874;151.240;2022-09-20T11:22:38;10.93;;;1.80;;
20794;SDS011;28087;-33.874;151.240;2022-09-20T11:25:18;8.95;;;1.58;;
20794;SDS011;28087;-33.874;151.240;2022-09-20T11:32:14;11.57;;;1.90;;
20794;SDS011;28087;-33.874;151.240;2022-09-20T11:35:05;12.25;;;1.63;;
20794;SDS011;28087;-33.874;151.240;2022-09-20T11:38:07;10.45;;;2.10;;
20794;SDS011;28087;-33.874;151.240;2022-09-20T11:40:46;10.80;;;1.67;;
20794;SDS011;28087;-33.874;151.240;2022-09-20T11:43:23;10.95;;;2.13;;
20794;SDS011;28087;-33.874;151.240;2022-09-20T11:46:07;13.00;;;2.03;;
20794;SDS011;28087;-33.874;151.240;2022-09-20T11:48:45;10.77;;;1.60;;
20794;SDS011;28087;-33.874;151.240;2022-09-20T11:57:40;9.27;;;1.55;;
20794;SDS011;28087;-33.874;151.240;2022-09-20T12:00:27;8.77;;;1.60;;
20794;SDS011;28087;-33.874;151.240;2022-09-20T12:03:08;11.10;;;1.60;;
20794;SDS011;28087;-33.874;151.240;2022-09-20T12:05:58;13.90;;;1.70;;
20794;SDS011;28087;-33.874;151.240;2022-09-20T12:08:36;13.13;;;1.85;;
20794;SDS011;28087;-33.874;151.240;2022-09-20T12:11:25;10.68;;;1.60;;
20794;SDS011;28087;-33.874;151.240;2022-09-20T12:14:15;10.82;;;1.70;;
20794;SDS011;28087;-33.874;151.240;2022-09-20T12:16:51;12.43;;;1.67;;
20794;SDS011;28087;-33.874;151.240;2022-09-20T12:19:39;8.82;;;1.67;;
20794;SDS011;28087;-33.874;151.240;2022-09-20T12:22:28;11.18;;;1.52;;
20794;SDS011;28087;-33.874;151.240;2022-09-20T12:28:03;11.15;;;2.10;;
20794;SDS011;28087;-33.874;151.240;2022-09-20T12:30:46;10.63;;;1.63;;
20794;SDS011;28087;-33.874;151.240;2022-09-20T12:33:54;11.98;;;1.67;;
20794;SDS011;28087;-33.874;151.240;2022-09-20T12:36:29;13.27;;;1.75;;
20794;SDS011;28087;-33.874;151.240;2022-09-20T12:39:13;15.25;;;1.92;;
20794;SDS011;28087;-33.874;151.240;2022-09-20T12:41:58;9.88;;;1.45;;
20794;SDS011;28087;-33.874;151.240;2022-09-20T12:44:40;10.02;;;1.88;;
20794;SDS011;28087;-33.874;151.240;2022-09-20T12:47:20;16.98;;;2.20;;
20794;SDS011;28087;-33.874;151.240;2022-09-20T12:49:57;8.77;;;1.58;;
20794;SDS011;28087;-33.874;151.240;2022-09-20T12:52:51;12.43;;;1.90;;
20794;SDS011;28087;-33.874;151.240;2022-09-20T12:55:41;11.98;;;2.00;;
20794;SDS011;28087;-33.874;151.240;2022-09-20T12:58:39;13.43;;;1.73;;
20794;SDS011;28087;-33.874;151.240;2022-09-20T13:01:39;12.48;;;1.63;;
20794;SDS011;28087;-33.874;151.240;2022-09-20T13:10:35;9.88;;;1.60;;
20794;SDS011;28087;-33.874;151.240;2022-09-20T13:13:34;11.10;;;1.48;;
20794;SDS011;28087;-33.874;151.240;2022-09-20T13:16:30;16.48;;;2.30;;
20794;SDS011;28087;-33.874;151.240;2022-09-20T13:19:20;12.02;;;2.13;;
20794;SDS011;28087;-33.874;151.240;2022-09-20T13:22:00;11.10;;;1.70;;
20794;SDS011;28087;-33.874;151.240;2022-09-20T13:24:42;12.35;;;1.98;;
20794;SDS011;28087;-33.874;151.240;2022-09-20T13:27:32;8.95;;;1.85;;
20794;SDS011;28087;-33.874;151.240;2022-09-20T13:30:15;13.63;;;1.75;;
20794;SDS011;28087;-33.874;151.240;2022-09-20T13:32:54;13.20;;;1.85;;
20794;SDS011;28087;-33.874;151.240;2022-09-20T13:35:49;9.95;;;1.90;;
20794;SDS011;28087;-33.874;151.240;2022-09-20T13:38:29;10.25;;;1.75;;
20794;SDS011;28087;-33.874;151.240;2022-09-20T13:41:05;10.70;;;1.60;;
20794;SDS011;28087;-33.874;151.240;2022-09-20T13:43:45;9.43;;;1.63;;
20794;SDS011;28087;-33.874;151.240;2022-09-20T13:46:22;10.40;;;1.63;;
20794;SDS011;28087;-33.874;151.240;2022-09-20T13:49:14;12.35;;;1.70;;
20794;SDS011;28087;-33.874;151.240;2022-09-20T13:51:55;7.68;;;1.88;;
20794;SDS011;28087;-33.874;151.240;2022-09-20T13:54:31;10.18;;;1.67;;
20794;SDS011;28087;-33.874;151.240;2022-09-20T13:57:18;11.05;;;1.40;;
20794;SDS011;28087;-33.874;151.240;2022-09-20T13:59:56;13.10;;;1.90;;
20794;SDS011;28087;-33.874;151.240;2022-09-20T14:02:39;16.35;;;2.10;;
20794;SDS011;28087;-33.874;151.240;2022-09-20T14:05:16;12.10;;;1.88;;
20794;SDS011;28087;-33.874;151.240;2022-09-20T14:07:54;14.05;;;1.63;;
20794;SDS011;28087;-33.874;151.240;2022-09-20T14:10:32;10.75;;;1.50;;
20794;SDS011;28087;-33.874;151.240;2022-09-20T14:13:12;8.30;;;1.30;;
20794;SDS011;28087;-33.874;151.240;2022-09-20T14:15:49;11.90;;;1.48;;
20794;SDS011;28087;-33.874;151.240;2022-09-20T14:18:26;13.55;;;2.08;;
20794;SDS011;28087;-33.874;151.240;2022-09-20T14:21:02;10.05;;;1.30;;
20794;SDS011;28087;-33.874;151.240;2022-09-20T14:23:50;10.65;;;1.90;;
20794;SDS011;28087;-33.874;151.240;2022-09-20T14:26:58;10.38;;;1.42;;
20794;SDS011;28087;-33.874;151.240;2022-09-20T14:29:37;13.30;;;1.70;;
20794;SDS011;28087;-33.874;151.240;2022-09-20T14:32:20;12.52;;;1.88;;
20794;SDS011;28087;-33.874;151.240;2022-09-20T14:35:13;11.77;;;1.73;;
20794;SDS011;28087;-33.874;151.240;2022-09-20T14:37:51;12.98;;;1.70;;
20794;SDS011;28087;-33.874;151.240;2022-09-20T14:40:40;13.15;;;1.75;;
20794;SDS011;28087;-33.874;151.240;2022-09-20T14:43:21;11.18;;;1.48;;
20794;SDS011;28087;-33.874;151.240;2022-09-20T14:45:59;17.88;;;2.00;;
20794;SDS011;28087;-33.874;151.240;2022-09-20T14:48:35;17.00;;;2.25;;
20794;SDS011;28087;-33.874;151.240;2022-09-20T14:51:22;16.65;;;2.00;;
20794;SDS011;28087;-33.874;151.240;2022-09-20T14:57:00;12.68;;;1.92;;
20794;SDS011;28087;-33.874;151.240;2022-09-20T14:59:36;10.02;;;1.95;;
20794;SDS011;28087;-33.874;151.240;2022-09-20T15:02:14;14.90;;;1.73;;
20794;SDS011;28087;-33.874;151.240;2022-09-20T15:04:51;15.27;;;2.30;;
20794;SDS011;28087;-33.874;151.240;2022-09-20T15:07:26;14.48;;;2.03;;
20794;SDS011;28087;-33.874;151.240;2022-09-20T15:10:01;11.00;;;1.70;;
20794;SDS011;28087;-33.874;151.240;2022-09-20T15:12:39;11.88;;;1.73;;
20794;SDS011;28087;-33.874;151.240;2022-09-20T15:15:14;16.17;;;2.13;;
20794;SDS011;28087;-33.874;151.240;2022-09-20T15:17:51;14.77;;;2.35;;
20794;SDS011;28087;-33.874;151.240;2022-09-20T15:20:26;13.38;;;1.92;;
20794;SDS011;28087;-33.874;151.240;2022-09-20T15:23:02;13.10;;;1.88;;
20794;SDS011;28087;-33.874;151.240;2022-09-20T15:25:38;12.55;;;1.88;;
20794;SDS011;28087;-33.874;151.240;2022-09-20T15:28:16;15.50;;;2.10;;
20794;SDS011;28087;-33.874;151.240;2022-09-20T15:30:51;8.85;;;1.70;;
20794;SDS011;28087;-33.874;151.240;2022-09-20T15:33:28;10.80;;;1.70;;
20794;SDS011;28087;-33.874;151.240;2022-09-20T15:36:04;14.68;;;2.00;;
20794;SDS011;28087;-33.874;151.240;2022-09-20T15:38:41;14.40;;;1.75;;
20794;SDS011;28087;-33.874;151.240;2022-09-20T15:41:17;15.00;;;2.30;;
20794;SDS011;28087;-33.874;151.240;2022-09-20T15:44:00;14.98;;;1.90;;
20794;SDS011;28087;-33.874;151.240;2022-09-20T15:46:36;14.98;;;2.03;;
20794;SDS011;28087;-33.874;151.240;2022-09-20T15:49:12;14.68;;;1.85;;
20794;SDS011;28087;-33.874;151.240;2022-09-20T15:51:48;10.38;;;1.75;;
20794;SDS011;28087;-33.874;151.240;2022-09-20T15:54:23;13.45;;;2.22;;
20794;SDS011;28087;-33.874;151.240;2022-09-20T15:56:59;14.57;;;2.10;;
20794;SDS011;28087;-33.874;151.240;2022-09-20T15:59:36;15.85;;;2.20;;
20794;SDS011;28087;-33.874;151.240;2022-09-20T16:02:12;12.48;;;1.70;;
20794;SDS011;28087;-33.874;151.240;2022-09-20T16:04:47;14.13;;;1.90;;
20794;SDS011;28087;-33.874;151.240;2022-09-20T16:07:25;12.65;;;2.10;;
20794;SDS011;28087;-33.874;151.240;2022-09-20T16:10:01;15.88;;;2.25;;
20794;SDS011;28087;-33.874;151.240;2022-09-20T16:12:36;14.55;;;2.30;;
20794;SDS011;28087;-33.874;151.240;2022-09-20T16:15:14;12.68;;;2.30;;
20794;SDS011;28087;-33.874;151.240;2022-09-20T16:17:51;15.98;;;1.98;;
20794;SDS011;28087;-33.874;151.240;2022-09-20T16:20:42;10.93;;;1.70;;
20794;SDS011;28087;-33.874;151.240;2022-09-20T16:23:18;12.75;;;2.15;;
20794;SDS011;28087;-33.874;151.240;2022-09-20T16:25:54;15.25;;;2.08;;
20794;SDS011;28087;-33.874;151.240;2022-09-20T16:28:48;12.48;;;1.67;;
20794;SDS011;28087;-33.874;151.240;2022-09-20T16:31:35;17.38;;;2.55;;
20794;SDS011;28087;-33.874;151.240;2022-09-20T16:34:13;14.43;;;2.10;;
20794;SDS011;28087;-33.874;151.240;2022-09-20T16:36:49;13.02;;;1.95;;
20794;SDS011;28087;-33.874;151.240;2022-09-20T16:39:26;13.98;;;2.15;;
20794;SDS011;28087;-33.874;151.240;2022-09-20T16:42:03;11.45;;;1.83;;
20794;SDS011;28087;-33.874;151.240;2022-09-20T16:44:39;13.45;;;2.20;;
20794;SDS011;28087;-33.874;151.240;2022-09-20T16:47:15;12.25;;;2.20;;
20794;SDS011;28087;-33.874;151.240;2022-09-20T16:49:51;11.13;;;1.90;;
20794;SDS011;28087;-33.874;151.240;2022-09-20T16:52:26;13.98;;;2.05;;
20794;SDS011;28087;-33.874;151.240;2022-09-20T16:55:00;12.60;;;2.00;;
20794;SDS011;28087;-33.874;151.240;2022-09-20T16:57:35;10.48;;;1.80;;
20794;SDS011;28087;-33.874;151.240;2022-09-20T17:00:10;14.38;;;2.30;;